Time;durP1;ratioP1;P1;durP2;ratioP2;P2;SDS_P1;SDS_P2;PMS_P1;PMS_P2;Temp;Humidity;BMP_temperature;BMP_pressure;BME280_temperature;BME280_humidity;BME280_pressure;Samples;Min_cycle;Max_cycle;Signal;HPM_P1;HPM_P2
2022/11/21 00:00:42;;;;;;;12.52;4.22;;;;;;;7.05;80.65;100440.63;5051685;28;20033;-62
2022/11/21 00:03:09;;;;;;;10.77;4.35;;;;;;;7.05;81.54;100437.03;5044816;28;20043;-62
2022/11/21 00:05:38;;;;;;;10.95;4.60;;;;;;;7.05;81.57;100448.91;5047504;28;20029;-63
2022/11/21 00:08:04;;;;;;;11.32;4.40;;;;;;;7.07;81.27;100455.03;5036039;28;20044;-62
2022/11/21 00:10:29;;;;;;;13.27;5.15;;;;;;;7.08;80.98;100458.63;5052660;28;20025;-62
2022/11/21 00:12:56;;;;;;;12.25;4.90;;;;;;;7.07;81.36;100468.84;5034037;28;20042;-62
2022/11/21 00:15:23;;;;;;;11.85;4.40;;;;;;;7.06;81.43;100461.63;5012387;28;20026;-62
2022/11/21 00:17:48;;;;;;;12.43;4.85;;;;;;;7.06;81.21;100458.84;5027163;28;20035;-62
2022/11/21 00:20:14;;;;;;;16.20;4.60;;;;;;;7.06;81.54;100458.84;5031808;28;20029;-62
2022/11/21 00:22:39;;;;;;;13.30;5.00;;;;;;;7.07;81.64;100465.22;5031082;28;20473;-62
2022/11/21 00:25:05;;;;;;;14.43;5.32;;;;;;;7.07;82.06;100476.25;5030865;28;20037;-59
2022/11/21 00:27:30;;;;;;;10.88;4.65;;;;;;;7.05;81.29;100475.66;5034201;28;20035;-61
2022/11/21 00:29:55;;;;;;;13.88;4.72;;;;;;;7.06;81.56;100469.91;5030074;28;20404;-61
2022/11/21 00:32:21;;;;;;;12.35;4.82;;;;;;;7.07;81.59;100470.72;5028605;28;20060;-61
2022/11/21 00:34:46;;;;;;;12.75;4.68;;;;;;;7.09;80.98;100471.34;5026622;28;20037;-61
2022/11/21 00:37:11;;;;;;;12.32;4.40;;;;;;;7.10;81.83;100468.34;5030817;28;20029;-61
2022/11/21 00:39:39;;;;;;;11.80;4.18;;;;;;;7.07;80.75;100465.22;5030671;28;20059;-61
2022/11/21 00:42:05;;;;;;;8.90;3.88;;;;;;;7.05;80.87;100459.94;5029562;28;20053;-61
2022/11/21 00:44:30;;;;;;;10.98;4.22;;;;;;;7.04;81.11;100461.03;5030177;28;20069;-61
2022/11/21 00:46:55;;;;;;;10.95;3.63;;;;;;;7.04;80.77;100450.00;5019830;28;20097;-61
2022/11/21 00:49:20;;;;;;;12.23;3.97;;;;;;;7.03;80.53;100459.31;5030525;28;20021;-61
2022/11/21 00:51:46;;;;;;;15.25;4.05;;;;;;;7.02;81.23;100452.13;5031388;28;20078;-61
2022/11/21 00:54:11;;;;;;;11.25;4.28;;;;;;;7.02;81.18;100452.13;5031394;28;20041;-61
2022/11/21 00:56:36;;;;;;;12.20;3.83;;;;;;;7.04;80.90;100460.19;5026771;28;20033;-61
2022/11/21 00:59:02;;;;;;;15.75;4.95;;;;;;;7.06;81.19;100458.03;5030535;28;20400;-61
2022/11/21 01:01:27;;;;;;;15.20;4.50;;;;;;;7.03;80.84;100451.06;5026396;28;20411;-61
2022/11/21 01:03:52;;;;;;;12.98;4.32;;;;;;;7.04;80.90;100454.69;5018945;28;20036;-60
2022/11/21 01:06:18;;;;;;;18.15;4.28;;;;;;;7.04;80.80;100455.50;5030943;28;20036;-60
2022/11/21 01:08:43;;;;;;;17.27;4.65;;;;;;;7.01;80.95;100453.22;5030725;28;20499;-61
2022/11/21 01:11:17;;;;;;;17.02;4.70;;;;;;;7.00;80.34;100453.47;5030611;28;20056;-60
2022/11/21 01:13:42;;;;;;;14.52;4.55;;;;;;;6.97;80.44;100454.78;5032016;28;20029;-60
2022/11/21 01:16:13;;;;;;;14.25;4.43;;;;;;;6.95;80.91;100458.84;5030563;28;20156;-60
2022/11/21 01:18:39;;;;;;;14.55;4.88;;;;;;;6.92;80.42;100462.09;5027913;28;20029;-60
2022/11/21 01:21:11;;;;;;;15.98;4.60;;;;;;;6.90;81.01;100462.34;5030582;28;20090;-61
2022/11/21 01:23:36;;;;;;;22.00;5.30;;;;;;;6.92;80.30;100465.72;5031479;28;20460;-60
2022/11/21 01:26:04;;;;;;;15.52;4.68;;;;;;;6.91;80.33;100464.00;5031082;28;20155;-60
2022/11/21 01:28:30;;;;;;;10.57;4.90;;;;;;;6.90;80.59;100462.34;5030614;28;20046;-60
2022/11/21 01:31:02;;;;;;;15.95;4.40;;;;;;;6.91;80.59;100465.94;5029957;28;20377;-61
2022/11/21 01:33:27;;;;;;;15.00;4.72;;;;;;;6.89;80.67;100460.66;5029130;28;20492;-61
2022/11/21 01:35:53;;;;;;;17.02;4.38;;;;;;;6.90;80.50;100465.09;5030458;28;20033;-61
2022/11/21 01:38:18;;;;;;;19.13;4.63;;;;;;;6.86;80.03;100463.88;5029123;28;20076;-61
2022/11/21 01:40:43;;;;;;;12.65;4.70;;;;;;;6.85;80.50;100451.19;5031260;28;20029;-61
2022/11/21 01:43:13;;;;;;;10.15;3.92;;;;;;;6.82;80.45;100457.16;5030826;28;20034;-61
2022/11/21 01:45:56;;;;;;;12.38;4.30;;;;;;;6.85;80.18;100457.53;5033360;28;20052;-61
2022/11/21 01:48:27;;;;;;;14.57;4.55;;;;;;;6.81;79.90;100467.38;5029519;28;20044;-61
2022/11/21 01:50:55;;;;;;;9.30;4.07;;;;;;;6.78;80.11;100464.25;5034677;28;20094;-61
2022/11/21 01:53:20;;;;;;;11.82;4.10;;;;;;;6.79;79.87;100460.41;5039623;28;20037;-61
2022/11/21 01:55:46;;;;;;;12.95;3.80;;;;;;;6.77;80.21;100455.13;5011254;28;20029;-62
2022/11/21 01:58:12;;;;;;;11.07;4.22;;;;;;;6.75;79.65;100453.69;5025542;28;20033;-61
2022/11/21 02:00:41;;;;;;;11.48;4.00;;;;;;;6.73;79.51;100444.81;5039531;28;20032;-61
2022/11/21 02:03:11;;;;;;;10.05;4.50;;;;;;;6.73;79.63;100447.56;5034593;28;20393;-61
2022/11/21 02:05:37;;;;;;;15.68;4.45;;;;;;;6.68;78.99;100453.81;5027691;28;20472;-61
2022/11/21 02:08:09;;;;;;;7.93;3.92;;;;;;;6.67;79.69;100454.88;5036842;28;20029;-61
2022/11/21 02:10:37;;;;;;;8.15;3.95;;;;;;;6.64;79.20;100455.34;5037938;28;20022;-59
2022/11/21 02:13:02;;;;;;;12.25;4.22;;;;;;;6.62;79.42;100463.84;5029485;28;20041;-61
2022/11/21 02:15:29;;;;;;;8.32;4.20;;;;;;;6.58;78.87;100459.88;5032075;28;20037;-61
2022/11/21 02:17:55;;;;;;;9.88;3.92;;;;;;;6.56;78.66;100456.53;5039926;28;20033;-61
2022/11/21 02:20:23;;;;;;;6.97;4.13;;;;;;;6.55;78.87;100468.63;5042964;28;20029;-61
2022/11/21 02:22:51;;;;;;;10.70;4.13;;;;;;;6.58;79.18;100478.34;5031056;28;20069;-61
2022/11/21 02:25:19;;;;;;;12.80;5.40;;;;;;;6.57;79.36;100474.75;5029093;28;20041;-61
2022/11/21 02:27:47;;;;;;;8.65;4.97;;;;;;;6.57;79.48;100476.69;5030257;28;20513;-61
2022/11/21 02:30:13;;;;;;;14.10;5.68;;;;;;;6.55;79.04;100476.06;5029219;28;20029;-61
2022/11/21 02:32:44;;;;;;;11.35;5.80;;;;;;;6.53;78.49;100476.31;5035268;28;20053;-61
2022/11/21 02:35:09;;;;;;;13.98;7.20;;;;;;;6.52;78.75;100471.00;5030126;28;20033;-61
2022/11/21 02:37:36;;;;;;;17.90;11.35;;;;;;;6.51;79.04;100466.59;5026854;28;20037;-61
2022/11/21 02:40:07;;;;;;;22.25;14.00;;;;;;;6.53;79.54;100475.47;5030606;28;20111;-61
2022/11/21 02:42:55;;;;;;;25.30;13.93;;;;;;;6.53;79.43;100479.06;5029206;28;20472;-61
2022/11/21 02:45:35;;;;;;;21.90;14.65;;;;;;;6.54;79.53;100477.97;5028168;28;20053;-61
2022/11/21 02:48:00;;;;;;;25.55;15.88;;;;;;;6.50;79.96;100476.78;5029598;28;20044;-61
2022/11/21 02:50:28;;;;;;;23.02;15.32;;;;;;;6.51;79.17;100483.97;5025741;28;20029;-61
2022/11/21 02:52:54;;;;;;;29.27;16.75;;;;;;;6.50;80.05;100484.22;5038640;28;20029;-61
2022/11/21 02:55:20;;;;;;;24.05;17.35;;;;;;;6.48;80.33;100481.66;5029294;28;20018;-61
2022/11/21 02:57:45;;;;;;;26.73;18.40;;;;;;;6.49;80.23;100479.78;5027783;28;20095;-61
2022/11/21 03:00:11;;;;;;;23.27;17.75;;;;;;;6.48;80.23;100476.16;5032162;28;20449;-61
2022/11/21 03:02:36;;;;;;;23.05;17.15;;;;;;;6.49;79.49;100471.50;5031103;28;20034;-61
2022/11/21 03:05:03;;;;;;;31.17;21.02;;;;;;;6.49;79.82;100474.25;5033331;28;20033;-61
2022/11/21 03:07:29;;;;;;;32.05;21.05;;;;;;;6.47;79.37;100473.66;5032053;28;20040;-61
2022/11/21 03:09:54;;;;;;;34.50;22.13;;;;;;;6.48;79.72;100483.59;5038430;28;20029;-61
2022/11/21 03:12:19;;;;;;;34.67;22.63;;;;;;;6.48;78.67;100481.66;5033117;28;20417;-61
2022/11/21 03:14:44;;;;;;;33.20;20.98;;;;;;;6.49;79.43;100472.34;5032513;28;20030;-61
2022/11/21 03:17:10;;;;;;;34.85;21.27;;;;;;;6.48;79.02;100467.88;5032485;28;20504;-60
2022/11/21 03:19:35;;;;;;;36.13;22.60;;;;;;;6.47;78.78;100462.63;5031753;28;20033;-60
2022/11/21 03:22:01;;;;;;;31.17;22.00;;;;;;;6.45;78.69;100465.63;5027729;28;20091;-60
2022/11/21 03:24:26;;;;;;;30.35;20.70;;;;;;;6.45;79.09;100468.38;5042997;28;20476;-61
2022/11/21 03:26:51;;;;;;;31.08;20.88;;;;;;;6.42;78.65;100468.84;5051875;28;20036;-61
2022/11/21 03:29:16;;;;;;;30.70;21.20;;;;;;;6.44;78.47;100460.31;5039837;28;20046;-60
2022/11/21 03:31:42;;;;;;;28.65;21.13;;;;;;;6.45;77.96;100453.75;5032501;28;20469;-61
2022/11/21 03:34:07;;;;;;;29.05;21.40;;;;;;;6.41;78.13;100450.63;5031590;28;20065;-60
2022/11/21 03:36:33;;;;;;;31.55;21.33;;;;;;;6.41;78.29;100463.56;5030673;28;20439;-61
2022/11/21 03:38:58;;;;;;;26.52;20.77;;;;;;;6.37;78.30;100463.19;5044820;28;20029;-61
2022/11/21 03:41:30;;;;;;;31.00;21.42;;;;;;;6.35;78.06;100457.06;5053649;28;20440;-61
2022/11/21 03:43:56;;;;;;;28.83;21.03;;;;;;;6.34;78.83;100449.88;5044604;28;20051;-61
2022/11/21 03:46:21;;;;;;;27.42;20.65;;;;;;;6.32;78.40;100457.53;5035059;28;20297;-60
2022/11/21 03:48:46;;;;;;;30.60;20.90;;;;;;;6.32;79.08;100463.03;5052029;28;20037;-61
2022/11/21 03:51:12;;;;;;;29.92;21.13;;;;;;;6.30;78.85;100456.94;5039699;28;20052;-61
2022/11/21 03:53:37;;;;;;;29.05;20.73;;;;;;;6.29;79.15;100458.03;5031487;28;20041;-61
2022/11/21 03:56:02;;;;;;;27.52;20.40;;;;;;;6.31;78.89;100464.13;5032259;28;20025;-61
2022/11/21 03:58:27;;;;;;;29.33;20.65;;;;;;;6.28;78.46;100456.31;5013308;28;20513;-62
2022/11/21 04:00:53;;;;;;;26.95;20.38;;;;;;;6.31;78.99;100466.88;5017409;28;20511;-62
2022/11/21 04:03:18;;;;;;;28.83;19.77;;;;;;;6.29;78.95;100471.81;5032619;28;20037;-62
2022/11/21 04:05:43;;;;;;;29.35;20.73;;;;;;;6.30;78.73;100467.97;5041559;28;20033;-61
2022/11/21 04:08:09;;;;;;;29.30;19.77;;;;;;;6.32;78.94;100476.81;5043432;28;20999;-62
2022/11/21 04:10:34;;;;;;;25.73;18.80;;;;;;;6.30;79.06;100470.72;5028101;28;20358;-62
2022/11/21 04:12:59;;;;;;;27.52;19.83;;;;;;;6.29;79.39;100463.53;5034266;28;20040;-61
2022/11/21 04:15:24;;;;;;;27.58;19.27;;;;;;;6.33;79.23;100453.72;5047509;28;20117;-61
2022/11/21 04:17:50;;;;;;;30.10;20.90;;;;;;;6.32;79.15;100460.28;5031897;28;20033;-62
2022/11/21 04:20:15;;;;;;;29.55;19.63;;;;;;;6.34;78.88;100461.75;5030674;28;20175;-61
2022/11/21 04:22:41;;;;;;;28.27;19.95;;;;;;;6.35;79.59;100462.59;5032016;28;20060;-62
2022/11/21 04:25:07;;;;;;;28.83;19.98;;;;;;;6.35;79.16;100460.66;5045382;28;20064;-62
2022/11/21 04:27:32;;;;;;;29.35;21.15;;;;;;;6.35;78.98;100457.06;5030480;28;20021;-61
2022/11/21 04:29:57;;;;;;;29.00;20.73;;;;;;;6.35;78.82;100452.38;5030447;28;20035;-61
2022/11/21 04:32:22;;;;;;;30.02;21.33;;;;;;;6.35;79.09;100448.81;5031623;28;20045;-61
2022/11/21 04:34:48;;;;;;;33.22;22.45;;;;;;;6.34;79.10;100442.44;5031514;28;20064;-62
2022/11/21 04:37:13;;;;;;;48.42;28.23;;;;;;;6.31;79.07;100429.13;5043115;28;20064;-62
2022/11/21 04:39:38;;;;;;;43.45;26.33;;;;;;;6.35;78.89;100427.59;5042987;28;20171;-61
2022/11/21 04:42:03;;;;;;;43.17;25.25;;;;;;;6.35;79.35;100421.22;5030519;28;20477;-61
2022/11/21 04:44:29;;;;;;;37.80;24.38;;;;;;;6.36;79.40;100428.41;5030588;28;20029;-61
2022/11/21 04:46:54;;;;;;;37.60;23.63;;;;;;;6.36;79.54;100425.66;5030813;28;20095;-62
2022/11/21 04:49:19;;;;;;;33.13;20.45;;;;;;;6.33;79.16;100413.22;5036922;28;20021;-62
2022/11/21 04:51:45;;;;;;;32.00;20.65;;;;;;;6.33;78.92;100426.16;5031639;28;20469;-61
2022/11/21 04:54:10;;;;;;;27.35;20.08;;;;;;;6.32;79.27;100424.47;5030968;28;20029;-61
2022/11/21 04:56:36;;;;;;;32.22;21.25;;;;;;;6.32;79.04;100421.69;5017001;28;20029;-61
2022/11/21 04:59:01;;;;;;;42.60;25.17;;;;;;;6.32;78.47;100421.69;5012568;28;20030;-61
2022/11/21 05:01:26;;;;;;;38.75;23.90;;;;;;;6.31;78.96;100420.03;5028968;28;20434;-61
2022/11/21 05:03:51;;;;;;;30.17;21.85;;;;;;;6.28;78.79;100417.72;5042549;28;20069;-62
2022/11/21 05:06:17;;;;;;;33.53;22.00;;;;;;;6.28;78.97;100415.81;5031668;28;20025;-61
2022/11/21 05:08:42;;;;;;;34.63;22.65;;;;;;;6.27;78.95;100416.91;5037584;28;20029;-61
2022/11/21 05:13:53;;;;;;;31.38;20.75;;;;;;;6.23;78.53;100409.34;5032502;28;20588;-62
2022/11/21 05:16:18;;;;;;;27.30;19.02;;;;;;;6.22;78.64;100405.75;5031176;28;20031;-61
2022/11/21 05:18:43;;;;;;;26.33;19.60;;;;;;;6.19;78.79;100403.47;5028652;28;20026;-61
2022/11/21 05:21:08;;;;;;;27.70;20.02;;;;;;;6.21;78.35;100405.97;5031623;28;20037;-62
2022/11/21 05:23:34;;;;;;;31.67;21.55;;;;;;;6.22;78.94;100399.41;5026004;28;20018;-62
2022/11/21 05:25:59;;;;;;;30.40;21.85;;;;;;;6.23;79.58;100395.56;5028564;28;20091;-61
2022/11/21 05:28:24;;;;;;;26.73;20.15;;;;;;;6.22;79.08;100404.91;5029649;28;20040;-61
2022/11/21 05:30:49;;;;;;;22.10;17.58;;;;;;;6.21;78.96;100395.81;5028429;28;20097;-59
2022/11/21 05:33:15;;;;;;;26.20;17.80;;;;;;;6.19;78.96;100386.91;5028462;28;20048;-61
2022/11/21 05:35:40;;;;;;;21.70;16.55;;;;;;;6.19;78.95;100378.66;5045764;28;20045;-61
2022/11/21 05:38:06;;;;;;;23.75;17.40;;;;;;;6.22;78.97;100385.63;5039140;28;20038;-61
2022/11/21 05:40:31;;;;;;;22.40;15.80;;;;;;;6.16;79.08;100381.88;5028926;28;20033;-61
2022/11/21 05:45:40;;;;;;;26.83;17.27;;;;;;;6.17;78.77;100379.97;5010569;28;20080;-61
2022/11/21 05:48:08;;;;;;;22.20;16.05;;;;;;;6.19;78.98;100375.06;5017261;28;20065;-62
2022/11/21 05:50:35;;;;;;;22.83;16.63;;;;;;;6.19;79.26;100381.41;5018298;28;20036;-62
2022/11/21 05:53:02;;;;;;;26.40;17.30;;;;;;;6.23;79.45;100379.03;5049779;28;20136;-62
2022/11/21 05:55:28;;;;;;;25.73;16.77;;;;;;;6.22;79.12;100383.72;5028450;28;20032;-62
2022/11/21 05:57:53;;;;;;;24.05;16.25;;;;;;;6.26;79.54;100379.41;5014851;28;20033;-61
2022/11/21 06:00:18;;;;;;;22.98;17.17;;;;;;;6.27;79.38;100377.47;5010295;28;20029;-61
2022/11/21 06:05:28;;;;;;;24.20;17.30;;;;;;;6.25;78.88;100368.59;5043412;28;20099;-62
2022/11/21 06:07:54;;;;;;;22.38;17.15;;;;;;;6.26;78.92;100364.78;5031190;28;20068;-62
2022/11/21 06:10:19;;;;;;;24.90;17.40;;;;;;;6.22;79.07;100378.19;5029737;28;20095;-62
2022/11/21 06:12:44;;;;;;;22.85;17.75;;;;;;;6.23;79.24;100373.53;5039561;28;20040;-62
2022/11/21 06:15:09;;;;;;;25.70;18.23;;;;;;;6.22;79.19;100380.13;5050843;28;20028;-62
2022/11/21 06:17:35;;;;;;;21.38;15.73;;;;;;;6.24;79.08;100366.91;5026133;28;20029;-62
2022/11/21 06:20:00;;;;;;;22.60;15.65;;;;;;;6.23;78.85;100360.56;5028734;28;20846;-62
2022/11/21 06:22:26;;;;;;;20.70;15.15;;;;;;;6.23;79.15;100362.50;5027704;28;20042;-63
2022/11/21 06:24:51;;;;;;;19.02;14.30;;;;;;;6.27;79.91;100359.03;5027796;28;20487;-62
2022/11/21 06:27:16;;;;;;;18.33;13.73;;;;;;;6.29;80.39;100359.63;5028856;28;20456;-61
2022/11/21 06:29:41;;;;;;;21.08;13.90;;;;;;;6.33;80.46;100349.81;5034243;28;20037;-61
2022/11/21 06:32:07;;;;;;;21.27;14.07;;;;;;;6.37;80.49;100347.44;5029218;28;20049;-61
2022/11/21 06:34:32;;;;;;;20.85;14.43;;;;;;;6.40;81.04;100346.94;5032136;28;20056;-61
2022/11/21 06:36:57;;;;;;;20.42;15.27;;;;;;;6.42;80.84;100344.78;5032942;28;20033;-61
2022/11/21 06:39:22;;;;;;;23.13;15.50;;;;;;;6.43;81.01;100340.94;5048016;28;20039;-61
2022/11/21 06:41:49;;;;;;;19.00;15.27;;;;;;;6.42;80.14;100342.03;5053659;28;20040;-61
2022/11/21 06:44:16;;;;;;;20.23;15.95;;;;;;;6.43;80.66;100342.88;5053582;28;20477;-61
2022/11/21 06:46:42;;;;;;;18.55;14.77;;;;;;;6.44;80.56;100339.84;5042031;28;20115;-61
2022/11/21 06:49:07;;;;;;;20.67;15.40;;;;;;;6.44;80.35;100344.53;5031495;28;20557;-61
2022/11/21 06:51:33;;;;;;;20.90;14.70;;;;;;;6.43;80.78;100342.88;5036227;28;20033;-61
2022/11/21 06:53:58;;;;;;;19.80;15.05;;;;;;;6.46;80.78;100339.63;5052026;28;20045;-61
2022/11/21 06:56:25;;;;;;;21.38;15.40;;;;;;;6.44;79.87;100337.09;5044747;28;20036;-61
2022/11/21 06:58:51;;;;;;;22.98;15.57;;;;;;;6.44;80.37;100334.34;5033131;28;20112;-61
2022/11/21 07:01:17;;;;;;;20.17;14.68;;;;;;;6.44;80.65;100337.09;5030985;28;20536;-61
2022/11/21 07:03:42;;;;;;;21.65;15.40;;;;;;;6.45;80.42;100325.03;5023442;28;20042;-61
2022/11/21 07:06:07;;;;;;;21.98;15.38;;;;;;;6.47;80.33;100328.34;5027267;28;20073;-61
2022/11/21 07:08:34;;;;;;;19.30;15.52;;;;;;;6.46;80.41;100331.38;5031687;28;20025;-61
2022/11/21 07:11:04;;;;;;;15.98;14.32;;;;;;;6.47;80.59;100322.00;5032852;28;20026;-61
2022/11/21 07:13:31;;;;;;;18.73;14.77;;;;;;;6.44;80.91;100331.59;5032343;28;20350;-61
2022/11/21 07:16:13;;;;;;;21.00;14.73;;;;;;;6.46;80.21;100315.66;5032093;28;20029;-61
2022/11/21 07:18:39;;;;;;;15.55;13.25;;;;;;;6.47;80.21;100319.25;5033018;28;20083;-61
2022/11/21 07:21:05;;;;;;;18.92;13.70;;;;;;;6.46;80.48;100328.59;5031707;28;20473;-61
2022/11/21 07:23:31;;;;;;;18.15;14.02;;;;;;;6.46;80.20;100321.19;5031265;28;20419;-61
2022/11/21 07:26:01;;;;;;;17.25;13.48;;;;;;;6.47;80.71;100322.84;5028663;28;20030;-61
2022/11/21 07:28:28;;;;;;;16.70;12.40;;;;;;;6.47;80.06;100317.34;5024553;28;20060;-60
2022/11/21 07:30:58;;;;;;;19.35;12.75;;;;;;;6.47;80.20;100316.50;5033614;28;20479;-61
2022/11/21 07:33:23;;;;;;;17.65;12.68;;;;;;;6.48;80.42;100312.66;5041401;28;20099;-60
2022/11/21 07:35:49;;;;;;;14.35;11.70;;;;;;;6.48;80.30;100316.25;5033298;28;20033;-61
2022/11/21 07:38:14;;;;;;;19.35;12.10;;;;;;;6.47;80.73;100322.84;5031550;28;20029;-61
2022/11/21 07:40:39;;;;;;;16.17;12.52;;;;;;;6.48;80.53;100320.94;5027200;28;20049;-61
2022/11/21 07:43:05;;;;;;;17.00;11.23;;;;;;;6.51;80.79;100324.03;5032339;28;20511;-61
2022/11/21 07:45:31;;;;;;;15.98;11.30;;;;;;;6.52;80.66;100320.19;5026587;28;20026;-61
2022/11/21 07:48:01;;;;;;;15.23;10.57;;;;;;;6.53;80.40;100319.16;5020981;28;20040;-61
2022/11/21 07:50:27;;;;;;;13.35;10.02;;;;;;;6.56;80.60;100324.19;5024142;28;20036;-61
2022/11/21 07:53:04;;;;;;;15.77;9.80;;;;;;;6.56;80.69;100321.44;5026344;28;20377;-61
2022/11/21 07:55:30;;;;;;;9.52;8.52;;;;;;;6.59;80.51;100314.56;5032655;28;20033;-61
2022/11/21 07:57:58;;;;;;;16.70;9.18;;;;;;;6.59;80.87;100315.41;5017488;28;20040;-61
2022/11/21 08:00:25;;;;;;;13.98;8.50;;;;;;;6.60;80.33;100308.84;5024563;28;20033;-61
2022/11/21 08:02:50;;;;;;;11.95;8.40;;;;;;;6.59;80.96;100298.88;5028846;28;20353;-60
2022/11/21 08:05:15;;;;;;;10.93;7.65;;;;;;;6.62;80.55;100303.91;5022311;28;20033;-60
2022/11/21 08:07:40;;;;;;;10.45;7.80;;;;;;;6.62;80.63;100297.56;5029360;28;20034;-60
2022/11/21 08:10:06;;;;;;;13.10;7.53;;;;;;;6.60;80.06;100303.31;5024118;28;20140;-62
2022/11/21 08:12:32;;;;;;;15.13;7.68;;;;;;;6.63;80.11;100300.06;5029526;28;20034;-61
2022/11/21 08:14:57;;;;;;;13.40;7.38;;;;;;;6.62;80.26;100301.16;5030072;28;20048;-61
2022/11/21 08:17:25;;;;;;;10.88;6.88;;;;;;;6.62;80.03;100298.41;5032258;28;20493;-61
2022/11/21 08:19:50;;;;;;;12.02;6.90;;;;;;;6.64;79.95;100293.50;5023294;28;20365;-61
2022/11/21 08:22:15;;;;;;;8.48;6.22;;;;;;;6.66;80.07;100293.25;5023439;28;20036;-62
2022/11/21 08:24:41;;;;;;;11.13;6.85;;;;;;;6.66;80.20;100289.66;5030492;28;20037;-62
2022/11/21 08:27:06;;;;;;;8.60;5.57;;;;;;;6.69;80.44;100297.44;5032806;28;20078;-62
2022/11/21 08:29:31;;;;;;;10.98;6.22;;;;;;;6.64;80.65;100287.97;5042918;28;20037;-61
2022/11/21 08:31:56;;;;;;;11.32;6.57;;;;;;;6.62;80.51;100281.84;5047102;28;20036;-61
2022/11/21 08:34:22;;;;;;;12.20;6.15;;;;;;;6.61;80.53;100268.31;5031091;28;20073;-62
2022/11/21 08:36:47;;;;;;;9.48;6.43;;;;;;;6.59;81.24;100262.19;5024252;28;20485;-61
2022/11/21 08:39:12;;;;;;;15.32;6.43;;;;;;;6.65;80.49;100258.47;5028892;28;20040;-62
2022/11/21 08:44:21;;;;;;;7.78;5.03;;;;;;;6.70;80.90;100250.31;5029829;28;20032;-61
2022/11/21 08:46:46;;;;;;;12.70;6.00;;;;;;;6.70;80.18;100250.31;5030166;28;20033;-61
2022/11/21 08:49:12;;;;;;;8.95;5.38;;;;;;;6.73;80.17;100263.63;5029684;28;20045;-61
2022/11/21 08:51:37;;;;;;;9.75;5.18;;;;;;;6.68;79.96;100257.13;5027008;28;20029;-61
2022/11/21 08:54:02;;;;;;;13.60;5.72;;;;;;;6.68;79.75;100262.66;5027955;28;20033;-61
2022/11/21 08:56:28;;;;;;;10.88;5.25;;;;;;;6.71;80.27;100256.66;5028772;28;20026;-61
2022/11/21 08:58:54;;;;;;;10.32;5.00;;;;;;;6.72;80.42;100247.28;5028486;28;20035;-61
2022/11/21 09:01:20;;;;;;;9.70;5.00;;;;;;;6.84;81.81;100248.13;5027074;28;20056;-61
2022/11/21 09:03:45;;;;;;;13.77;4.82;;;;;;;6.89;80.38;100242.72;5023824;28;20033;-61
2022/11/21 09:06:11;;;;;;;6.75;5.03;;;;;;;6.92;79.45;100244.13;5018223;28;20026;-59
2022/11/21 09:08:37;;;;;;;10.15;4.90;;;;;;;6.90;80.17;100233.34;5032936;28;20710;-59
2022/11/21 09:11:04;;;;;;;12.88;5.20;;;;;;;6.93;79.74;100241.16;5031208;28;20029;-59
2022/11/21 09:13:29;;;;;;;12.90;4.90;;;;;;;6.98;80.10;100237.66;5025510;28;20544;-59
2022/11/21 09:18:41;;;;;;;10.43;4.65;;;;;;;7.04;79.44;100232.00;5034798;28;20107;-60
2022/11/21 09:21:06;;;;;;;13.32;5.25;;;;;;;7.12;79.27;100230.78;5028475;28;20029;-59
2022/11/21 09:23:31;;;;;;;10.88;5.30;;;;;;;7.24;79.92;100236.25;5045889;28;20112;-60
2022/11/21 09:25:59;;;;;;;8.85;4.82;;;;;;;7.41;80.30;100239.03;5042395;28;20032;-60
2022/11/21 09:28:24;;;;;;;12.25;5.10;;;;;;;7.66;79.87;100230.38;5022034;28;20087;-60
2022/11/21 09:30:49;;;;;;;11.25;4.75;;;;;;;7.82;78.97;100232.31;5027580;28;20469;-61
2022/11/21 09:33:17;;;;;;;12.48;5.10;;;;;;;7.96;77.73;100225.38;5033912;28;20057;-60
2022/11/21 09:35:43;;;;;;;9.82;3.92;;;;;;;8.07;77.83;100218.09;5049113;28;20570;-61
2022/11/21 09:38:08;;;;;;;7.65;4.35;;;;;;;8.17;77.43;100207.19;5039050;28;20033;-61
2022/11/21 09:40:35;;;;;;;35.28;5.38;;;;;;;8.28;77.50;100202.66;5031556;28;20049;-61
2022/11/21 09:43:17;;;;;;;7.90;4.45;;;;;;;8.34;76.59;100196.13;5028989;28;20397;-61
2022/11/21 09:45:48;;;;;;;12.82;4.80;;;;;;;8.45;77.07;100206.28;5028873;28;20109;-61
2022/11/21 09:48:22;;;;;;;9.80;4.35;;;;;;;8.56;76.22;100202.53;5028331;28;20404;-60
2022/11/21 09:50:55;;;;;;;8.40;4.35;;;;;;;8.66;75.23;100201.00;5029034;28;20033;-61
2022/11/21 09:53:37;;;;;;;13.90;4.32;;;;;;;8.76;75.70;100198.34;5019642;28;20029;-61
2022/11/21 09:56:11;;;;;;;13.05;4.70;;;;;;;8.82;74.84;100194.56;5022634;28;20026;-62
2022/11/21 09:58:42;;;;;;;9.75;4.75;;;;;;;8.85;74.39;100185.75;5029191;28;20045;-61
2022/11/21 10:01:11;;;;;;;12.77;3.92;;;;;;;8.91;74.48;100184.72;5026735;28;20025;-62
2022/11/21 10:03:46;;;;;;;11.45;4.28;;;;;;;8.97;74.33;100177.31;5031125;28;20036;-62
2022/11/21 10:06:18;;;;;;;11.20;3.95;;;;;;;8.86;73.08;100184.66;5027903;28;20037;-61
2022/11/21 10:09:11;;;;;;;6.70;3.58;;;;;;;8.89;73.61;100181.38;5032782;28;20030;-62
2022/11/21 10:14:43;;;;;;;10.00;3.92;;;;;;;8.96;73.84;100173.72;5029146;28;20107;-61
2022/11/21 10:17:17;;;;;;;8.93;3.55;;;;;;;8.95;73.37;100176.72;5029039;28;20037;-62
2022/11/21 10:19:57;;;;;;;10.02;3.58;;;;;;;8.87;72.74;100169.72;5046027;28;20072;-62
2022/11/21 10:22:54;;;;;;;10.25;3.88;;;;;;;8.78;73.28;100157.44;5037894;28;20136;-62
2022/11/21 10:25:28;;;;;;;9.23;4.18;;;;;;;8.78;74.16;100149.97;5026312;28;20083;-62
2022/11/21 10:28:12;;;;;;;10.65;4.53;;;;;;;8.82;74.43;100145.59;5028907;28;20036;-61
2022/11/21 10:30:42;;;;;;;12.23;4.32;;;;;;;8.89;74.67;100139.88;5018957;28;20108;-60
2022/11/21 10:33:14;;;;;;;10.10;4.00;;;;;;;8.92;72.99;100132.97;5035700;28;20041;-60
2022/11/21 10:35:44;;;;;;;11.95;4.28;;;;;;;8.87;73.55;100132.91;5044652;28;20097;-60
2022/11/21 10:38:21;;;;;;;7.68;3.47;;;;;;;8.81;73.42;100132.03;5040768;28;20480;-61
2022/11/21 10:40:49;;;;;;;10.68;4.00;;;;;;;9.23;82.55;100129.41;5041970;28;20025;-61
2022/11/21 10:46:20;;;;;;;8.48;3.45;;;;;;;8.87;73.42;100119.91;5032049;28;20627;-60
2022/11/21 10:48:54;;;;;;;9.07;3.90;;;;;;;8.85;74.34;100119.34;5031307;28;20116;-61
2022/11/21 10:51:34;;;;;;;9.57;3.50;;;;;;;8.84;74.11;100120.41;5031466;28;20048;-61
2022/11/21 10:56:52;;;;;;;11.80;4.38;;;;;;;8.89;74.13;100114.13;5029052;28;20096;-60
2022/11/21 10:59:26;;;;;;;7.70;3.75;;;;;;;8.91;73.98;100104.47;5036395;28;20049;-60
2022/11/21 11:01:58;;;;;;;10.35;3.80;;;;;;;8.88;73.15;100098.59;5041283;28;20022;-60
2022/11/21 11:04:25;;;;;;;12.02;4.03;;;;;;;8.91;72.89;100100.84;5046727;28;20288;-60
2022/11/21 11:06:50;;;;;;;8.93;4.10;;;;;;;8.92;72.94;100095.06;5035635;28;20038;-61
2022/11/21 11:09:29;;;;;;;12.40;4.47;;;;;;;9.00;72.79;100090.97;5040479;28;20036;-61
2022/11/21 11:12:22;;;;;;;8.55;3.50;;;;;;;9.07;73.49;100086.91;5035796;28;20029;-61
2022/11/21 11:14:53;;;;;;;8.27;3.58;;;;;;;9.13;72.75;100078.66;5038438;28;20120;-61
2022/11/21 11:17:30;;;;;;;11.88;3.88;;;;;;;9.21;72.09;100076.25;5037153;28;20041;-61
2022/11/21 11:20:00;;;;;;;9.27;4.18;;;;;;;9.25;71.82;100077.41;5025119;28;20563;-62
2022/11/21 11:22:28;;;;;;;11.43;3.95;;;;;;;9.26;70.89;100070.75;5029596;28;20030;-62
2022/11/21 11:24:53;;;;;;;11.40;4.18;;;;;;;9.29;71.28;100061.09;5040411;28;20563;-63
2022/11/21 11:27:26;;;;;;;10.02;3.67;;;;;;;9.30;71.28;100055.28;5032665;28;20033;-62
2022/11/21 11:29:51;;;;;;;10.45;4.13;;;;;;;9.34;71.52;100061.13;5045945;28;20039;-62
2022/11/21 11:32:17;;;;;;;8.52;3.75;;;;;;;9.34;69.69;100058.34;5051573;28;20089;-63
2022/11/21 11:34:55;;;;;;;9.60;3.33;;;;;;;9.34;69.81;100050.88;5036537;28;20119;-62
2022/11/21 11:37:34;;;;;;;7.03;3.15;;;;;;;9.37;70.34;100046.75;5029773;28;20032;-62
2022/11/21 11:40:40;;;;;;;7.47;3.33;;;;;;;9.39;69.48;100032.63;5039282;28;20513;-61
2022/11/21 11:52:56;;;;;;;8.73;3.67;;;;;;;9.41;68.84;100003.56;5017017;28;20096;-61
2022/11/21 11:55:30;;;;;;;10.05;3.30;;;;;;;9.36;68.26;99986.94;5019684;28;20033;-62